createdAt,value
2019-02-07T00:01:15.767Z,18.50
2019-02-07T00:03:44.983Z,17.42
2019-02-07T00:06:14.014Z,15.15
2019-02-07T00:08:43.035Z,15.53
2019-02-07T00:11:12.376Z,17.20
2019-02-07T00:13:41.519Z,13.93
2019-02-07T00:16:10.781Z,15.00
2019-02-07T00:18:40.455Z,14.98
2019-02-07T00:21:09.528Z,13.58
2019-02-07T00:23:38.451Z,14.25
2019-02-07T00:26:07.403Z,16.80
2019-02-07T00:28:36.360Z,17.50
2019-02-07T00:31:05.286Z,14.93
2019-02-07T00:33:34.550Z,15.72
2019-02-07T00:36:03.469Z,17.70
2019-02-07T00:38:32.313Z,14.95
2019-02-07T00:41:01.172Z,16.62
2019-02-07T00:43:29.965Z,16.25
2019-02-07T00:45:59.316Z,17.17
2019-02-07T00:48:29.310Z,15.20
2019-02-07T00:50:58.466Z,15.28
2019-02-07T00:53:27.594Z,15.35
2019-02-07T00:55:56.951Z,15.60
2019-02-07T00:58:25.827Z,16.90
2019-02-07T01:00:54.946Z,14.25
2019-02-07T01:03:24.314Z,14.07
2019-02-07T01:05:53.403Z,15.60
2019-02-07T01:08:22.661Z,16.65
2019-02-07T01:10:52.150Z,17.32
2019-02-07T01:13:20.930Z,16.73
2019-02-07T01:15:49.779Z,15.15
2019-02-07T01:18:18.929Z,14.68
2019-02-07T01:20:47.775Z,15.65
2019-02-07T01:23:17.191Z,18.07
2019-02-07T01:25:46.063Z,16.42
2019-02-07T01:28:14.946Z,15.30
2019-02-07T01:30:44.420Z,18.70
2019-02-07T01:33:13.551Z,16.12
2019-02-07T01:35:42.411Z,13.80
2019-02-07T01:38:11.267Z,14.68
2019-02-07T01:40:40.271Z,15.70
2019-02-07T01:43:09.124Z,15.63
2019-02-07T01:45:44.797Z,13.83
2019-02-07T01:48:14.314Z,15.55
2019-02-07T01:50:43.295Z,16.70
2019-02-07T01:53:12.372Z,16.85
2019-02-07T01:55:41.399Z,16.60
2019-02-07T01:58:10.471Z,14.13
2019-02-07T02:00:39.424Z,15.13
2019-02-07T02:03:08.689Z,15.05
2019-02-07T02:05:37.544Z,13.20
2019-02-07T02:08:06.401Z,17.65
2019-02-07T02:10:35.358Z,13.28
2019-02-07T02:13:04.500Z,14.43
2019-02-07T02:15:33.427Z,15.35
2019-02-07T02:18:02.556Z,14.73
2019-02-07T02:20:31.541Z,16.82
2019-02-07T02:23:00.623Z,15.45
2019-02-07T02:25:29.643Z,20.15
2019-02-07T02:27:58.716Z,17.80
2019-02-07T02:30:30.158Z,14.28
2019-02-07T02:32:59.481Z,16.35
2019-02-07T02:35:28.534Z,16.42
2019-02-07T02:37:57.429Z,16.42
2019-02-07T02:40:26.574Z,14.18
2019-02-07T02:42:55.696Z,14.58
2019-02-07T02:45:36.602Z,14.78
2019-02-07T02:47:56.552Z,15.40
2019-02-07T02:50:25.509Z,15.40
2019-02-07T02:52:54.449Z,14.65
2019-02-07T02:55:30.766Z,14.73
2019-02-07T02:57:59.866Z,15.78
2019-02-07T03:00:48.976Z,16.07
2019-02-07T03:03:22.428Z,17.15
2019-02-07T03:06:19.153Z,15.70
2019-02-07T03:08:55.684Z,15.72
2019-02-07T03:11:43.739Z,14.98
2019-02-07T03:14:37.528Z,16.35
2019-02-07T03:17:37.423Z,16.57
2019-02-07T03:20:14.208Z,15.43
2019-02-07T03:23:01.037Z,16.35
2019-02-07T03:25:40.119Z,14.78
2019-02-07T03:28:21.646Z,14.25
2019-02-07T03:31:08.482Z,15.13
2019-02-07T03:33:59.519Z,13.85
2019-02-07T03:36:44.901Z,13.60
2019-02-07T03:39:19.898Z,15.43
2019-02-07T03:42:07.943Z,14.73
2019-02-07T03:44:55.997Z,13.75
2019-02-07T03:47:34.243Z,12.90
2019-02-07T03:50:25.626Z,14.05
2019-02-07T03:53:21.726Z,12.93
2019-02-07T03:56:10.398Z,15.18
2019-02-07T03:58:56.407Z,12.88
2019-02-07T04:01:46.506Z,15.43
2019-02-07T04:04:29.695Z,15.32
2019-02-07T04:07:16.367Z,13.32
2019-02-07T04:10:01.850Z,13.08
2019-02-07T04:12:48.767Z,14.75
2019-02-07T04:15:27.692Z,12.13
2019-02-07T04:18:11.073Z,16.55
2019-02-07T04:20:57.417Z,13.45
2019-02-07T04:23:45.511Z,15.68
2019-02-07T04:26:35.388Z,15.25
2019-02-07T04:29:32.584Z,14.23
2019-02-07T04:32:20.244Z,13.13
2019-02-07T04:35:11.383Z,13.40
2019-02-07T04:38:00.635Z,15.63
2019-02-07T04:40:49.444Z,14.75
2019-02-07T04:43:36.346Z,15.40
2019-02-07T04:46:27.221Z,13.78
2019-02-07T04:49:11.482Z,14.03
2019-02-07T04:52:11.603Z,15.13
2019-02-07T04:55:08.847Z,14.47
2019-02-07T04:58:15.392Z,15.98
2019-02-07T05:01:09.180Z,13.83
2019-02-07T05:04:06.061Z,15.30
2019-02-07T05:06:46.018Z,17.10
2019-02-07T05:09:34.568Z,14.13
2019-02-07T05:12:16.062Z,13.20
2019-02-07T05:15:00.431Z,15.25
2019-02-07T05:17:54.302Z,14.18
2019-02-07T05:20:48.183Z,14.58
2019-02-07T05:23:38.946Z,11.28
2019-02-07T05:26:20.247Z,15.03
2019-02-07T05:29:06.872Z,13.00
2019-02-07T05:32:07.110Z,15.80
2019-02-07T05:34:50.450Z,14.05
2019-02-07T05:37:34.680Z,13.25
2019-02-07T05:40:17.088Z,14.07
2019-02-07T05:42:54.770Z,12.85
2019-02-07T05:45:39.997Z,15.25
2019-02-07T05:48:31.200Z,14.23
2019-02-07T05:51:17.438Z,13.58
2019-02-07T05:54:17.465Z,13.95
2019-02-07T05:57:11.512Z,15.03
2019-02-07T05:59:58.194Z,14.15
2019-02-07T06:02:39.306Z,15.78
2019-02-07T06:05:30.545Z,13.72
2019-02-07T06:08:16.997Z,13.88
2019-02-07T06:10:56.924Z,13.72
2019-02-07T06:13:51.515Z,14.87
2019-02-07T06:16:42.611Z,13.90
2019-02-07T06:19:45.761Z,15.20
2019-02-07T06:22:31.320Z,15.60
2019-02-07T06:25:24.389Z,15.58
2019-02-07T06:28:18.631Z,14.80
2019-02-07T06:31:06.854Z,13.75
2019-02-07T06:33:56.546Z,14.28
2019-02-07T06:36:42.379Z,15.10
2019-02-07T06:39:30.940Z,17.77
2019-02-07T06:42:18.190Z,15.40
2019-02-07T06:45:18.387Z,15.08
2019-02-07T06:48:12.055Z,14.07
2019-02-07T06:51:03.185Z,14.10
2019-02-07T06:53:49.980Z,15.53
2019-02-07T06:56:38.156Z,15.72
2019-02-07T06:59:29.265Z,14.58
2019-02-07T07:02:15.922Z,13.43
2019-02-07T07:05:02.551Z,14.85
2019-02-07T07:07:52.423Z,14.98
2019-02-07T07:10:36.800Z,14.25
2019-02-07T07:13:23.304Z,16.23
2019-02-07T07:16:14.472Z,14.03
2019-02-07T07:19:12.491Z,12.33
2019-02-07T07:21:59.299Z,13.72
2019-02-07T07:24:54.520Z,15.63
2019-02-07T07:27:51.617Z,15.88
2019-02-07T07:30:31.829Z,16.05
2019-02-07T07:33:22.759Z,16.90
2019-02-07T07:36:19.917Z,14.98
2019-02-07T07:39:06.251Z,16.77
2019-02-07T07:41:52.219Z,16.52
2019-02-07T07:44:40.560Z,14.03
2019-02-07T07:47:35.652Z,17.55
2019-02-07T07:50:31.702Z,16.42
2019-02-07T07:53:17.998Z,15.35
2019-02-07T07:56:04.981Z,14.33
2019-02-07T07:58:43.633Z,14.33
2019-02-07T08:01:27.756Z,16.12
2019-02-07T08:04:14.788Z,16.02
2019-02-07T08:06:57.142Z,17.90
2019-02-07T08:09:57.265Z,15.38
2019-02-07T08:12:39.441Z,16.37
2019-02-07T08:15:21.675Z,16.00
2019-02-07T08:18:24.989Z,16.15
2019-02-07T08:21:11.515Z,16.42
2019-02-07T08:23:56.147Z,17.23
2019-02-07T08:26:53.316Z,15.23
2019-02-07T08:29:34.703Z,15.08
2019-02-07T08:32:15.693Z,16.07
2019-02-07T08:34:57.033Z,15.05
2019-02-07T08:37:35.111Z,15.80
2019-02-07T08:40:27.405Z,17.50
2019-02-07T08:43:13.818Z,15.35
2019-02-07T08:46:20.034Z,18.60
2019-02-07T08:49:09.651Z,17.98
2019-02-07T08:51:51.929Z,18.35
2019-02-07T08:54:51.875Z,18.12
2019-02-07T08:57:45.611Z,15.13
2019-02-07T09:00:29.497Z,20.25
2019-02-07T09:03:16.237Z,17.40
2019-02-07T09:05:57.470Z,13.60
2019-02-07T09:08:44.092Z,18.70
2019-02-07T09:11:30.447Z,14.68
2019-02-07T09:14:24.677Z,16.85
2019-02-07T09:17:17.738Z,14.93
2019-02-07T09:19:59.167Z,17.15
2019-02-07T09:22:53.378Z,12.00
2019-02-07T09:25:50.187Z,12.30
2019-02-07T09:28:47.151Z,17.37
2019-02-07T09:31:33.549Z,17.52
2019-02-07T09:34:17.793Z,15.38
2019-02-07T09:37:04.420Z,10.00
2019-02-07T09:39:46.164Z,17.23
2019-02-07T09:42:34.651Z,11.33
2019-02-07T09:45:21.997Z,16.55
2019-02-07T09:48:04.556Z,15.05
2019-02-07T09:50:42.547Z,16.70
2019-02-07T09:53:24.057Z,16.57
2019-02-07T09:56:03.753Z,16.67
2019-02-07T09:58:44.365Z,18.25
2019-02-07T10:01:19.948Z,16.97
2019-02-07T10:04:05.752Z,17.00
2019-02-07T10:07:05.857Z,16.15
2019-02-07T10:09:46.380Z,18.55
2019-02-07T10:12:43.816Z,14.60
2019-02-07T10:15:32.120Z,15.85
2019-02-07T10:18:18.561Z,16.00
2019-02-07T10:21:05.152Z,16.62
2019-02-07T10:24:02.409Z,16.45
2019-02-07T10:26:56.130Z,17.85
2019-02-07T10:29:49.895Z,17.10
2019-02-07T10:32:36.438Z,15.15
2019-02-07T10:35:22.839Z,13.85
2019-02-07T10:38:10.224Z,17.17
2019-02-07T10:40:56.448Z,17.02
2019-02-07T10:43:42.916Z,18.52
2019-02-07T10:46:28.138Z,18.98
2019-02-07T10:49:17.852Z,19.57
2019-02-07T10:52:14.756Z,17.35
2019-02-07T10:55:09.141Z,19.85
2019-02-07T10:57:56.116Z,16.97
2019-02-07T11:00:50.631Z,16.50
2019-02-07T11:03:37.311Z,17.45
2019-02-07T11:06:31.522Z,17.17
2019-02-07T11:09:34.432Z,19.73
2019-02-07T11:12:19.832Z,17.45
2019-02-07T11:15:06.543Z,17.77
2019-02-07T11:17:47.497Z,17.67
2019-02-07T11:20:42.695Z,17.32
2019-02-07T11:23:32.552Z,15.23
2019-02-07T11:26:35.566Z,15.58
2019-02-07T11:29:22.227Z,16.50
2019-02-07T11:32:15.451Z,16.82
2019-02-07T11:35:01.681Z,18.70
2019-02-07T11:37:51.226Z,17.92
2019-02-07T11:40:42.402Z,16.67
2019-02-07T11:43:18.051Z,16.85
2019-02-07T11:46:04.492Z,18.25
2019-02-07T11:48:48.526Z,17.48
2019-02-07T11:51:27.665Z,16.57
2019-02-07T11:54:18.334Z,16.42
2019-02-07T11:57:04.707Z,18.10
2019-02-07T12:00:01.860Z,17.15
2019-02-07T12:02:52.796Z,17.20
2019-02-07T12:05:39.163Z,15.80
2019-02-07T12:08:36.367Z,18.65
2019-02-07T12:11:24.965Z,18.55
2019-02-07T12:14:19.323Z,15.63
2019-02-07T12:17:03.684Z,12.50
2019-02-07T12:19:57.747Z,16.57
2019-02-07T12:22:37.400Z,16.80
2019-02-07T12:25:40.819Z,14.03
2019-02-07T12:28:27.619Z,20.08
2019-02-07T12:31:15.822Z,16.05
2019-02-07T12:34:06.036Z,15.05
2019-02-07T12:36:44.808Z,17.80
2019-02-07T12:39:21.931Z,19.50
2019-02-07T12:42:08.825Z,16.25
2019-02-07T12:44:49.363Z,17.98
2019-02-07T12:47:38.577Z,15.65
2019-02-07T12:50:29.876Z,16.40
2019-02-07T12:53:16.619Z,19.57
2019-02-07T12:56:08.034Z,18.17
2019-02-07T12:59:07.331Z,18.52
2019-02-07T13:02:05.591Z,20.52
2019-02-07T13:04:52.560Z,18.75
2019-02-07T13:07:41.546Z,16.57
2019-02-07T13:10:31.231Z,14.60
2019-02-07T13:13:16.266Z,19.52
2019-02-07T13:16:23.905Z,16.73
2019-02-07T13:19:18.066Z,18.95
2019-02-07T13:22:06.765Z,17.95
2019-02-07T13:24:58.007Z,18.20
2019-02-07T13:27:55.091Z,18.20
2019-02-07T13:30:42.032Z,18.15
2019-02-07T13:33:19.838Z,18.12
2019-02-07T13:36:07.751Z,16.65
2019-02-07T13:38:58.566Z,19.27
2019-02-07T13:41:45.207Z,16.62
2019-02-07T13:44:32.951Z,19.10
2019-02-07T13:47:15.656Z,20.15
2019-02-07T13:50:21.879Z,14.53
2019-02-07T13:53:15.987Z,21.60
2019-02-07T13:56:06.283Z,20.10
2019-02-07T13:58:57.302Z,22.27
2019-02-07T14:01:57.800Z,22.55
2019-02-07T14:04:38.486Z,19.92
2019-02-07T14:07:30.364Z,22.10
2019-02-07T14:10:18.327Z,18.00
2019-02-07T14:13:15.235Z,22.10
2019-02-07T14:16:09.603Z,24.27
2019-02-07T14:19:08.254Z,23.35
2019-02-07T14:21:55.236Z,23.35
2019-02-07T14:24:48.023Z,18.15
2019-02-07T14:27:34.761Z,25.80
2019-02-07T14:30:13.859Z,16.62
2019-02-07T14:33:00.561Z,23.12
2019-02-07T14:35:53.971Z,22.80
2019-02-07T14:38:45.054Z,21.10
2019-02-07T14:41:31.941Z,20.62
2019-02-07T14:44:19.459Z,14.40
2019-02-07T14:46:52.651Z,21.20
2019-02-07T14:49:21.658Z,15.48
2019-02-07T14:51:53.251Z,18.82
2019-02-07T14:54:22.509Z,18.95
2019-02-07T14:56:51.794Z,22.52
2019-02-07T14:59:20.708Z,22.20
2019-02-07T15:01:50.071Z,23.12
2019-02-07T15:04:19.078Z,22.27
2019-02-07T15:06:48.269Z,23.52
2019-02-07T15:09:21.252Z,22.65
2019-02-07T15:11:50.315Z,24.27
2019-02-07T15:14:19.268Z,22.42
2019-02-07T15:16:48.239Z,20.68
2019-02-07T15:19:17.429Z,23.05
2019-02-07T15:21:46.488Z,18.87
2019-02-07T15:24:15.332Z,20.10
2019-02-07T15:26:44.272Z,20.55
2019-02-07T15:29:16.027Z,18.85
2019-02-07T15:31:44.565Z,19.00
2019-02-07T15:34:13.774Z,19.75
2019-02-07T15:36:44.864Z,19.92
2019-02-07T15:39:15.370Z,19.73
2019-02-07T15:41:44.424Z,19.80
2019-02-07T15:44:13.487Z,17.75
2019-02-07T15:46:42.370Z,18.55
2019-02-07T15:49:11.256Z,17.20
2019-02-07T15:51:40.611Z,18.00
2019-02-07T15:54:09.998Z,16.20
2019-02-07T15:56:39.155Z,12.70
2019-02-07T15:59:45.723Z,16.80
2019-02-07T16:02:34.133Z,18.35
2019-02-07T16:05:04.863Z,19.25
2019-02-07T16:07:50.815Z,16.27
2019-02-07T16:10:20.083Z,15.78
2019-02-07T16:12:49.199Z,16.97
2019-02-07T16:15:20.081Z,15.43
2019-02-07T16:17:49.604Z,18.55
2019-02-07T16:20:19.060Z,21.12
2019-02-07T16:22:48.330Z,18.32
2019-02-07T16:25:18.028Z,14.03
2019-02-07T16:27:47.220Z,20.32
2019-02-07T16:30:16.897Z,17.80
2019-02-07T16:32:46.379Z,22.70
2019-02-07T16:35:16.851Z,21.82
2019-02-07T16:37:45.971Z,20.08
2019-02-07T16:40:15.514Z,21.10
2019-02-07T16:42:44.703Z,21.12
2019-02-07T16:45:15.461Z,21.45
2019-02-07T16:47:44.440Z,21.97
2019-02-07T16:50:15.167Z,23.27
2019-02-07T16:52:45.616Z,20.13
2019-02-07T16:55:14.551Z,15.72
2019-02-07T16:57:43.684Z,22.42
2019-02-07T17:00:16.015Z,21.52
2019-02-07T17:02:45.018Z,18.40
2019-02-07T17:05:15.475Z,21.90
2019-02-07T17:07:44.631Z,19.32
2019-02-07T17:10:15.569Z,19.15
2019-02-07T17:12:44.521Z,20.30
2019-02-07T17:15:14.865Z,23.42
2019-02-07T17:17:44.288Z,20.65
2019-02-07T17:20:18.890Z,22.55
2019-02-07T17:22:47.979Z,23.10
2019-02-07T17:25:17.103Z,21.85
2019-02-07T17:27:45.996Z,21.42
2019-02-07T17:30:16.414Z,21.40
2019-02-07T17:32:45.811Z,16.82
2019-02-07T17:35:15.972Z,19.32
2019-02-07T17:37:44.827Z,20.80
2019-02-07T17:40:15.900Z,20.62
2019-02-07T17:42:45.309Z,21.68
2019-02-07T17:45:17.608Z,20.12
2019-02-07T17:47:47.123Z,21.15
2019-02-07T17:50:19.523Z,19.20
2019-02-07T17:52:50.357Z,18.55
2019-02-07T17:55:20.080Z,17.65
2019-02-07T17:57:49.404Z,18.48
2019-02-07T18:00:26.874Z,16.55
2019-02-07T18:02:56.080Z,15.88
2019-02-07T18:05:25.135Z,13.83
2019-02-07T18:07:54.367Z,17.30
2019-02-07T18:10:23.523Z,15.45
2019-02-07T18:12:52.537Z,16.67
2019-02-07T18:15:22.162Z,15.50
2019-02-07T18:17:51.269Z,15.53
2019-02-07T18:20:20.695Z,14.93
2019-02-07T18:22:49.879Z,14.90
2019-02-07T18:25:19.079Z,17.60
2019-02-07T18:27:49.056Z,13.62
2019-02-07T18:30:18.677Z,16.67
2019-02-07T18:32:47.627Z,15.90
2019-02-07T18:35:17.088Z,9.65
2019-02-07T18:37:46.158Z,13.20
2019-02-07T18:40:20.742Z,13.78
2019-02-07T18:42:50.332Z,12.00
2019-02-07T18:45:19.927Z,13.85
2019-02-07T18:47:48.884Z,11.73
2019-02-07T18:50:26.892Z,13.90
2019-02-07T18:52:55.828Z,12.82
2019-02-07T18:55:24.748Z,14.53
2019-02-07T18:57:53.750Z,13.80
2019-02-07T19:00:25.273Z,11.48
2019-02-07T19:02:54.858Z,13.45
2019-02-07T19:05:24.371Z,12.82
2019-02-07T19:07:54.175Z,13.35
2019-02-07T19:10:23.863Z,13.72
2019-02-07T19:12:54.373Z,12.58
2019-02-07T19:15:29.183Z,12.03
2019-02-07T19:17:58.579Z,11.43
2019-02-07T19:20:27.824Z,11.97
2019-02-07T19:22:57.115Z,11.18
2019-02-07T19:25:26.403Z,12.68
2019-02-07T19:27:55.948Z,10.00
2019-02-07T19:30:29.552Z,12.53
2019-02-07T19:32:58.754Z,11.65
2019-02-07T19:35:28.021Z,10.23
2019-02-07T19:37:57.248Z,11.90
2019-02-07T19:40:26.423Z,13.03
2019-02-07T19:42:55.850Z,14.70
2019-02-07T19:45:25.000Z,13.68
2019-02-07T19:47:54.103Z,12.43
2019-02-07T19:50:24.638Z,13.45
2019-02-07T19:52:54.052Z,14.07
2019-02-07T19:55:25.207Z,11.53
2019-02-07T19:57:54.419Z,14.20
2019-02-07T20:00:25.676Z,12.80
2019-02-07T20:02:55.033Z,13.28
2019-02-07T20:05:24.636Z,13.75
2019-02-07T20:07:53.845Z,13.10
2019-02-07T20:10:24.653Z,12.90
2019-02-07T20:12:54.429Z,13.20
2019-02-07T20:15:34.419Z,13.70
2019-02-07T20:18:03.519Z,12.60
2019-02-07T20:20:32.447Z,11.45
2019-02-07T20:23:01.400Z,11.65
2019-02-07T20:25:30.591Z,15.15
2019-02-07T20:27:59.813Z,12.20
2019-02-07T20:30:30.731Z,16.27
2019-02-07T20:32:59.929Z,11.22
2019-02-07T20:35:28.905Z,9.90
2019-02-07T20:37:57.930Z,13.20
2019-02-07T20:40:27.524Z,8.35
2019-02-07T20:42:56.730Z,11.63
2019-02-07T20:45:26.279Z,13.62
2019-02-07T20:47:55.724Z,8.65
2019-02-07T20:50:25.824Z,9.25
2019-02-07T20:52:55.197Z,11.60
2019-02-07T20:55:24.147Z,12.00
2019-02-07T20:57:53.429Z,11.10
2019-02-07T21:00:25.074Z,9.03
2019-02-07T21:02:55.916Z,8.43
2019-02-07T21:05:26.532Z,13.85
2019-02-07T21:07:55.664Z,11.80
2019-02-07T21:10:25.428Z,9.13
2019-02-07T21:12:54.629Z,11.68
2019-02-07T21:15:24.104Z,12.10
2019-02-07T21:17:53.260Z,9.98
2019-02-07T21:20:24.093Z,12.90
2019-02-07T21:22:53.894Z,9.95
2019-02-07T21:25:25.208Z,8.13
2019-02-07T21:27:54.447Z,11.00
2019-02-07T21:30:26.195Z,10.35
2019-02-07T21:32:55.523Z,10.93
2019-02-07T21:35:27.702Z,11.33
2019-02-07T21:37:56.556Z,12.68
2019-02-07T21:40:27.334Z,10.45
2019-02-07T21:42:57.209Z,10.90
2019-02-07T21:45:26.244Z,9.70
2019-02-07T21:47:55.649Z,10.05
2019-02-07T21:50:25.744Z,10.03
2019-02-07T21:52:54.720Z,9.95
2019-02-07T21:55:25.508Z,10.48
2019-02-07T21:57:54.761Z,9.95
2019-02-07T22:00:32.214Z,14.80
2019-02-07T22:03:01.383Z,10.13
2019-02-07T22:05:30.672Z,8.05
2019-02-07T22:07:59.524Z,10.98
2019-02-07T22:10:29.092Z,10.45
2019-02-07T22:12:58.388Z,4.33
2019-02-07T22:15:27.971Z,9.35
2019-02-07T22:17:57.119Z,10.50
2019-02-07T22:20:26.930Z,9.40
2019-02-07T22:22:56.138Z,9.65
2019-02-07T22:25:25.320Z,10.35
2019-02-07T22:27:54.491Z,9.00
2019-02-07T22:30:28.625Z,9.18
2019-02-07T22:32:58.213Z,7.05
2019-02-07T22:35:27.387Z,9.00
2019-02-07T22:37:56.332Z,9.60
2019-02-07T22:40:25.973Z,8.30
2019-02-07T22:42:55.060Z,9.20
2019-02-07T22:45:25.010Z,10.98
2019-02-07T22:47:53.886Z,6.40
2019-02-07T22:50:24.644Z,9.13
2019-02-07T22:52:57.006Z,7.25
2019-02-07T22:55:24.591Z,7.70
2019-02-07T22:57:53.443Z,9.05
2019-02-07T23:01:09.683Z,8.20
2019-02-07T23:03:40.531Z,6.60
2019-02-07T23:06:09.975Z,8.28
2019-02-07T23:08:38.866Z,8.10
2019-02-07T23:11:08.695Z,8.28
2019-02-07T23:13:37.622Z,6.85
2019-02-07T23:16:08.402Z,6.78
2019-02-07T23:18:38.084Z,6.22
2019-02-07T23:21:07.869Z,8.20
2019-02-07T23:23:36.894Z,6.78
2019-02-07T23:26:06.922Z,5.20
2019-02-07T23:28:36.056Z,6.60
2019-02-07T23:31:06.878Z,6.70
2019-02-07T23:33:36.201Z,6.60
2019-02-07T23:36:06.512Z,5.55
2019-02-07T23:38:35.699Z,7.00
2019-02-07T23:41:06.091Z,5.65
2019-02-07T23:43:35.295Z,6.10
2019-02-07T23:46:05.580Z,8.48
2019-02-07T23:48:34.856Z,6.47
2019-02-07T23:51:04.061Z,4.95
2019-02-07T23:53:33.246Z,4.92
2019-02-07T23:56:02.096Z,5.10
2019-02-07T23:58:31.271Z,7.83
